Time;durP1;ratioP1;P1;durP2;ratioP2;P2;SDS_P1;SDS_P2;PMS_P1;PMS_P2;Temp;Humidity;BMP_temperature;BMP_pressure;BME280_temperature;BME280_humidity;BME280_pressure;Samples;Min_cycle;Max_cycle;Signal;HPM_P1;HPM_P2
2023/02/16 00:00:35;;;;;;;45.53;21.58;;;;;;;;;;4981448;28;20038;-60
2023/02/16 00:03:01;;;;;;;42.13;19.85;;;;;;;;;;4981173;28;20038;-59
2023/02/16 00:05:30;;;;;;;43.97;20.73;;;;;;;;;;4982799;28;20113;-61
2023/02/16 00:07:57;;;;;;;42.75;19.98;;;;;;;;;;4984322;28;20129;-61
2023/02/16 00:10:22;;;;;;;42.28;19.67;;;;;;;;;;4982386;28;20054;-61
2023/02/16 00:15:32;;;;;;;44.70;22.10;;;;;;;;;;4984364;28;20370;-62
2023/02/16 00:17:58;;;;;;;59.70;23.17;;;;;;;;;;4984046;28;20034;-60
2023/02/16 00:20:23;;;;;;;62.72;27.08;;;;;;;;;;4983200;28;20497;-60
2023/02/16 00:22:49;;;;;;;62.70;26.00;;;;;;;;;;4981681;28;20117;-61
2023/02/16 00:25:14;;;;;;;63.08;25.75;;;;;;;;;;4983955;28;20410;-62
2023/02/16 00:27:39;;;;;;;61.85;27.02;;;;;;;;;;4986293;28;20038;-61
2023/02/16 00:30:19;;;;;;;61.92;25.90;;;;;;;;;;4983150;28;20034;-61
2023/02/16 00:32:50;;;;;;;60.38;25.58;;;;;;;;;;4979839;28;20030;-62
2023/02/16 00:35:20;;;;;;;60.88;26.55;;;;;;;;;;4981202;28;20113;-61
2023/02/16 00:37:46;;;;;;;59.17;25.17;;;;;;;;;;4982894;28;20048;-60
2023/02/16 00:40:12;;;;;;;59.20;25.67;;;;;;;;;;4982458;28;20034;-64
2023/02/16 00:42:37;;;;;;;51.45;23.80;;;;;;;;;;4986092;28;20026;-60
2023/02/16 00:45:03;;;;;;;62.05;23.88;;;;;;;;;;4985221;28;20476;-61
2023/02/16 00:47:36;;;;;;;52.00;23.77;;;;;;;;;;4980902;28;20061;-61
2023/02/16 00:50:02;;;;;;;57.90;24.73;;;;;;;;;;4982840;28;20077;-61
2023/02/16 00:52:38;;;;;;;51.63;23.15;;;;;;;;;;4983167;28;20474;-60
2023/02/16 00:55:08;;;;;;;49.38;22.02;;;;;;;;;;4982351;28;20450;-62
2023/02/16 00:57:35;;;;;;;48.10;20.23;;;;;;;;;;4984004;28;20085;-62
2023/02/16 01:00:00;;;;;;;;;;;;;;;;;;4979247;28;20042;-61
2023/02/16 01:02:26;;;;;;;36.17;17.20;;;;;;;;;;4980751;28;19914;-63
2023/02/16 01:04:52;;;;;;;42.60;19.48;;;;;;;;;;4982259;28;20383;-62
2023/02/16 01:12:45;;;;;;;39.42;18.00;;;;;;;;;;4999787;28;20034;-61
2023/02/16 01:15:12;;;;;;;42.58;17.40;;;;;;;;;;4984979;28;20511;-61
2023/02/16 01:17:38;;;;;;;41.20;19.38;;;;;;;;;;4984300;28;20030;-60
2023/02/16 01:20:12;;;;;;;36.17;17.67;;;;;;;;;;4985029;28;20038;-61
2023/02/16 01:22:38;;;;;;;40.25;18.05;;;;;;;;;;4986125;28;20027;-61
2023/02/16 01:25:05;;;;;;;;;;;;;;;;;;4984822;28;20428;-61
2023/02/16 01:27:31;;;;;;;43.40;19.53;;;;;;;;;;4984039;28;19932;-60
2023/02/16 01:29:56;;;;;;;45.15;21.10;;;;;;;;;;4987433;28;20271;-60
2023/02/16 01:32:21;;;;;;;42.58;20.33;;;;;;;;;;4984702;28;20059;-60
2023/02/16 01:34:46;;;;;;;45.38;21.25;;;;;;;;;;4984654;28;20044;-60
2023/02/16 01:37:13;;;;;;;38.92;18.88;;;;;;;;;;4986745;28;20045;-62
2023/02/16 01:39:41;;;;;;;46.17;21.52;;;;;;;;;;4983783;28;20038;-61
2023/02/16 01:42:16;;;;;;;54.67;23.40;;;;;;;;;;4986174;28;20026;-61
2023/02/16 01:44:49;;;;;;;45.25;21.20;;;;;;;;;;4983496;28;20148;-60
2023/02/16 01:47:18;;;;;;;47.65;21.00;;;;;;;;;;4985519;28;20038;-60
2023/02/16 01:49:43;;;;;;;50.17;22.10;;;;;;;;;;4984237;28;20038;-61
2023/02/16 01:52:24;;;;;;;47.13;20.67;;;;;;;;;;4986368;28;20760;-61
2023/02/16 01:54:52;;;;;;;54.78;22.83;;;;;;;;;;4987061;28;20164;-60
2023/02/16 01:57:26;;;;;;;48.08;22.40;;;;;;;;;;4983948;28;20030;-60
2023/02/16 01:59:54;;;;;;;49.58;22.73;;;;;;;;;;4984719;28;20045;-61
2023/02/16 02:02:21;;;;;;;51.33;21.33;;;;;;;;;;4986811;28;20772;-61
2023/02/16 02:05:34;;;;;;;49.15;21.27;;;;;;;;;;4996685;28;20084;-61
2023/02/16 02:07:59;;;;;;;39.28;18.30;;;;;;;;;;4962805;28;20097;-61
2023/02/16 02:10:44;;;;;;;48.50;20.38;;;;;;;;;;4978020;28;20064;-62
2023/02/16 02:13:09;;;;;;;42.53;19.65;;;;;;;;;;4979945;28;20038;-61
2023/02/16 02:15:36;;;;;;;50.30;21.70;;;;;;;;;;4984470;28;20501;-61
2023/02/16 02:18:02;;;;;;;47.72;21.20;;;;;;;;;;4993003;28;20034;-61
2023/02/16 02:23:31;;;;;;;45.42;20.95;;;;;;;;;;4978027;28;20031;-61
2023/02/16 02:26:03;;;;;;;45.20;20.52;;;;;;;;;;4981521;28;20034;-60
2023/02/16 02:28:36;;;;;;;56.78;20.88;;;;;;;;;;4995475;28;20038;-60
2023/02/16 02:31:09;;;;;;;44.90;21.33;;;;;;;;;;4983450;28;20030;-60
2023/02/16 02:33:38;;;;;;;48.63;20.38;;;;;;;;;;4983019;28;20320;-60
2023/02/16 02:36:27;;;;;;;46.35;20.02;;;;;;;;;;4977066;28;20026;-60
2023/02/16 02:38:52;;;;;;;47.28;19.83;;;;;;;;;;4971233;28;20125;-61
2023/02/16 02:41:22;;;;;;;43.22;19.08;;;;;;;;;;4983102;28;20165;-61
2023/02/16 02:43:55;;;;;;;51.08;19.77;;;;;;;;;;4994706;28;20474;-60
2023/02/16 02:46:32;;;;;;;43.30;19.30;;;;;;;;;;4978286;28;20092;-60
2023/02/16 02:48:58;;;;;;;42.58;18.02;;;;;;;;;;4982599;28;20037;-61
2023/02/16 02:51:29;;;;;;;46.25;19.98;;;;;;;;;;4983563;28;20454;-61
2023/02/16 03:02:45;;;;;;;37.35;17.73;;;;;;;;;;4961231;28;20042;-61
2023/02/16 03:05:11;;;;;;;39.65;17.58;;;;;;;;;;4985428;28;20065;-61
2023/02/16 03:07:46;;;;;;;36.65;15.77;;;;;;;;;;4982635;28;20038;-61
2023/02/16 03:13:13;;;;;;;36.42;16.17;;;;;;;;;;4984053;28;20077;-61
2023/02/16 03:15:39;;;;;;;41.75;17.83;;;;;;;;;;4983160;28;20022;-61
2023/02/16 03:29:21;;;;;;;39.42;17.02;;;;;;;;;;4983142;28;20038;-62
2023/02/16 03:31:47;;;;;;;57.47;22.00;;;;;;;;;;4983374;28;20034;-60
2023/02/16 03:34:13;;;;;;;55.22;22.38;;;;;;;;;;4983179;28;20097;-60
2023/02/16 03:36:40;;;;;;;48.42;21.25;;;;;;;;;;4981179;28;20069;-60
2023/02/16 03:39:06;;;;;;;47.33;22.70;;;;;;;;;;4983274;28;20076;-60
2023/02/16 03:41:37;;;;;;;49.88;20.63;;;;;;;;;;4982608;28;20034;-61
2023/02/16 03:44:02;;;;;;;49.42;20.23;;;;;;;;;;4980743;28;20435;-61
2023/02/16 03:46:28;;;;;;;47.55;20.40;;;;;;;;;;4983714;28;20230;-61
2023/02/16 03:48:53;;;;;;;53.88;21.45;;;;;;;;;;4984567;28;20027;-63
2023/02/16 03:51:18;;;;;;;44.30;18.75;;;;;;;;;;4984119;28;20404;-63
2023/02/16 03:53:44;;;;;;;41.65;17.27;;;;;;;;;;4984681;28;20076;-61
2023/02/16 03:56:09;;;;;;;39.33;18.75;;;;;;;;;;4985668;28;20566;-62
2023/02/16 03:58:34;;;;;;;40.28;17.73;;;;;;;;;;4976745;28;20042;-60
2023/02/16 04:00:59;;;;;;;46.38;17.73;;;;;;;;;;4983058;28;20034;-62
2023/02/16 04:03:25;;;;;;;41.08;16.85;;;;;;;;;;4982749;28;20042;-61
2023/02/16 04:05:51;;;;;;;42.60;17.77;;;;;;;;;;4982706;28;20065;-60
2023/02/16 04:08:16;;;;;;;38.55;17.13;;;;;;;;;;4984713;28;20037;-60
2023/02/16 04:10:41;;;;;;;42.83;18.63;;;;;;;;;;4982363;28;20120;-60
2023/02/16 04:13:06;;;;;;;45.88;18.92;;;;;;;;;;4982785;28;20622;-62
2023/02/16 04:15:32;;;;;;;41.25;18.30;;;;;;;;;;4983359;28;20390;-60
2023/02/16 04:17:57;;;;;;;53.80;21.58;;;;;;;;;;4983600;28;20034;-60
2023/02/16 04:20:25;;;;;;;73.07;25.45;;;;;;;;;;4983144;28;20042;-60
2023/02/16 04:22:50;;;;;;;62.30;25.25;;;;;;;;;;4983605;28;20035;-60
2023/02/16 04:25:19;;;;;;;57.65;23.15;;;;;;;;;;4980834;28;20065;-61
2023/02/16 04:27:45;;;;;;;67.80;26.08;;;;;;;;;;4982385;28;20566;-60
2023/02/16 04:30:12;;;;;;;58.75;24.23;;;;;;;;;;4981993;28;20053;-61
2023/02/16 04:32:38;;;;;;;64.65;24.77;;;;;;;;;;4983644;28;20287;-61
2023/02/16 04:35:03;;;;;;;50.33;22.75;;;;;;;;;;4981756;28;20026;-62
2023/02/16 04:37:29;;;;;;;49.15;21.63;;;;;;;;;;4984204;28;20501;-61
2023/02/16 04:39:54;;;;;;;49.92;21.10;;;;;;;;;;4983511;28;20117;-60
2023/02/16 04:42:19;;;;;;;58.08;22.25;;;;;;;;;;4983249;28;20030;-60
2023/02/16 04:44:44;;;;;;;45.72;21.45;;;;;;;;;;4983937;28;20031;-63
2023/02/16 04:47:10;;;;;;;56.50;21.30;;;;;;;;;;4983661;28;20041;-61
2023/02/16 04:49:35;;;;;;;54.22;22.50;;;;;;;;;;4985386;28;20050;-61
2023/02/16 04:52:02;;;;;;;51.78;20.00;;;;;;;;;;4985098;28;20735;-62
2023/02/16 04:54:28;;;;;;;42.22;18.80;;;;;;;;;;5000220;28;20049;-61
2023/02/16 04:56:53;;;;;;;46.05;18.08;;;;;;;;;;4986455;28;20030;-62
2023/02/16 04:59:19;;;;;;;42.88;17.95;;;;;;;;;;4985565;28;20064;-62
2023/02/16 05:01:44;;;;;;;52.25;18.25;;;;;;;;;;4989356;28;20026;-62
2023/02/16 05:04:09;;;;;;;50.22;19.58;;;;;;;;;;4987291;28;20030;-60
2023/02/16 05:06:36;;;;;;;51.53;19.95;;;;;;;;;;5004115;28;20049;-61
2023/02/16 05:09:02;;;;;;;85.75;34.17;;;;;;;;;;4988197;28;20038;-60
2023/02/16 05:17:03;;;;;;;62.15;24.23;;;;;;;;;;4985999;28;20111;-60
2023/02/16 05:19:31;;;;;;;56.55;23.45;;;;;;;;;;4984757;28;20065;-60
2023/02/16 05:21:56;;;;;;;53.60;21.48;;;;;;;;;;4983833;28;20117;-61
2023/02/16 05:24:21;;;;;;;53.20;20.05;;;;;;;;;;4983113;28;20156;-60
2023/02/16 05:26:46;;;;;;;43.95;18.33;;;;;;;;;;4985724;28;20649;-61
2023/02/16 05:29:12;;;;;;;44.83;18.05;;;;;;;;;;4985597;28;20128;-61
2023/02/16 05:31:37;;;;;;;43.08;17.90;;;;;;;;;;4984001;28;20041;-61
2023/02/16 05:34:02;;;;;;;46.50;19.77;;;;;;;;;;4984663;28;20034;-62
2023/02/16 05:36:28;;;;;;;46.40;18.63;;;;;;;;;;4984580;28;20165;-62
2023/02/16 05:38:53;;;;;;;53.85;20.85;;;;;;;;;;4982466;28;20026;-61
2023/02/16 05:41:24;;;;;;;52.92;21.27;;;;;;;;;;4987208;28;20382;-60
2023/02/16 05:43:49;;;;;;;59.70;22.63;;;;;;;;;;4983013;28;20026;-59
2023/02/16 05:46:15;;;;;;;49.38;19.73;;;;;;;;;;4986155;28;20376;-61
2023/02/16 05:48:40;;;;;;;40.22;18.27;;;;;;;;;;4985296;28;20049;-61
2023/02/16 05:51:05;;;;;;;46.22;20.17;;;;;;;;;;4984951;28;20049;-59
2023/02/16 05:53:30;;;;;;;43.17;19.20;;;;;;;;;;4980794;28;20376;-62
2023/02/16 05:55:56;;;;;;;48.42;20.15;;;;;;;;;;4985689;28;20022;-60
2023/02/16 05:58:21;;;;;;;52.08;19.45;;;;;;;;;;4985237;28;20637;-59
2023/02/16 06:00:47;;;;;;;50.28;18.52;;;;;;;;;;4984937;28;20031;-59
2023/02/16 06:03:12;;;;;;;47.42;20.23;;;;;;;;;;4980263;28;20034;-60
2023/02/16 06:05:37;;;;;;;59.38;22.67;;;;;;;;;;4984483;28;20058;-60
2023/02/16 06:08:03;;;;;;;47.38;20.52;;;;;;;;;;4980558;28;20647;-61
2023/02/16 06:10:28;;;;;;;49.70;20.05;;;;;;;;;;4979624;28;20080;-60
2023/02/16 06:12:53;;;;;;;52.97;19.17;;;;;;;;;;4983936;28;20683;-60
2023/02/16 06:15:19;;;;;;;52.47;19.25;;;;;;;;;;4982983;28;20062;-61
2023/02/16 06:17:44;;;;;;;51.42;18.88;;;;;;;;;;4987057;28;20040;-61
2023/02/16 06:20:09;;;;;;;41.40;17.48;;;;;;;;;;4982865;28;20030;-61
2023/02/16 06:22:35;;;;;;;43.65;18.35;;;;;;;;;;4985098;28;20450;-61
2023/02/16 06:25:00;;;;;;;49.53;19.58;;;;;;;;;;4982228;28;20026;-61
2023/02/16 06:27:27;;;;;;;50.08;21.35;;;;;;;;;;4983847;28;20121;-61
2023/02/16 06:29:52;;;;;;;57.85;23.15;;;;;;;;;;4984742;28;20042;-60
2023/02/16 06:32:18;;;;;;;63.60;26.33;;;;;;;;;;4985210;28;20395;-62
2023/02/16 06:34:43;;;;;;;53.58;24.30;;;;;;;;;;4984300;28;20054;-60
2023/02/16 06:37:08;;;;;;;46.78;24.20;;;;;;;;;;4983550;28;20415;-60
2023/02/16 06:39:34;;;;;;;59.40;24.35;;;;;;;;;;4980469;28;20022;-60
2023/02/16 06:41:59;;;;;;;54.00;22.67;;;;;;;;;;4982079;28;20146;-60
2023/02/16 06:44:24;;;;;;;54.15;23.10;;;;;;;;;;4983639;28;20031;-60
2023/02/16 06:46:49;;;;;;;54.90;23.58;;;;;;;;;;4981822;28;20099;-61
2023/02/16 06:49:19;;;;;;;48.72;21.00;;;;;;;;;;4982547;28;20048;-60
2023/02/16 06:51:44;;;;;;;53.00;19.95;;;;;;;;;;4979314;28;20042;-60
2023/02/16 06:54:10;;;;;;;42.80;17.80;;;;;;;;;;4983922;28;20163;-61
2023/02/16 06:56:35;;;;;;;42.03;17.88;;;;;;;;;;4983824;28;20038;-60
2023/02/16 06:59:01;;;;;;;42.63;18.98;;;;;;;;;;4981583;28;20392;-61
2023/02/16 07:01:27;;;;;;;50.90;20.35;;;;;;;;;;4985578;28;20030;-60
2023/02/16 07:03:53;;;;;;;43.45;19.48;;;;;;;;;;4982156;28;20038;-60
2023/02/16 07:06:19;;;;;;;52.70;22.33;;;;;;;;;;4981730;28;20030;-61
2023/02/16 07:08:45;;;;;;;50.13;20.90;;;;;;;;;;4983616;28;20041;-62
2023/02/16 07:11:10;;;;;;;56.88;23.05;;;;;;;;;;4984554;28;20518;-60
2023/02/16 07:13:35;;;;;;;138.30;35.58;;;;;;;;;;4982070;28;20030;-61
2023/02/16 07:16:02;;;;;;;233.60;50.45;;;;;;;;;;4983068;28;20047;-63
2023/02/16 07:18:27;;;;;;;146.52;40.10;;;;;;;;;;4983357;28;20074;-61
2023/02/16 07:20:52;;;;;;;91.72;29.70;;;;;;;;;;4984759;28;20030;-62
2023/02/16 07:23:18;;;;;;;69.10;28.13;;;;;;;;;;4983457;28;20038;-61
2023/02/16 07:25:43;;;;;;;81.70;29.75;;;;;;;;;;4984262;28;20029;-62
2023/02/16 07:28:08;;;;;;;66.88;27.67;;;;;;;;;;4983394;28;20129;-61
2023/02/16 07:30:34;;;;;;;80.50;30.42;;;;;;;;;;4981561;28;20461;-61
2023/02/16 07:32:59;;;;;;;85.03;31.92;;;;;;;;;;4984383;28;20089;-62
2023/02/16 07:35:24;;;;;;;128.07;38.85;;;;;;;;;;4981343;28;20509;-61
2023/02/16 07:37:50;;;;;;;126.72;38.08;;;;;;;;;;4983660;28;20097;-63
2023/02/16 07:40:15;;;;;;;96.88;32.70;;;;;;;;;;4981198;28;20030;-61
2023/02/16 07:42:40;;;;;;;86.78;28.77;;;;;;;;;;4982553;28;20029;-61
2023/02/16 07:45:08;;;;;;;66.32;25.73;;;;;;;;;;4983324;28;20039;-61
2023/02/16 07:47:33;;;;;;;59.42;24.08;;;;;;;;;;4984054;28;20917;-61
2023/02/16 07:49:59;;;;;;;56.83;24.20;;;;;;;;;;4984661;28;20643;-61
2023/02/16 07:52:29;;;;;;;64.28;26.20;;;;;;;;;;4984642;28;20054;-60
2023/02/16 07:54:55;;;;;;;63.38;24.58;;;;;;;;;;4986362;28;20059;-59
2023/02/16 07:57:21;;;;;;;63.65;25.42;;;;;;;;;;4984034;28;20026;-60
2023/02/16 07:59:46;;;;;;;70.90;29.55;;;;;;;;;;4984525;28;20056;-60
2023/02/16 08:02:15;;;;;;;74.63;32.28;;;;;;;;;;4980187;28;20056;-61
2023/02/16 08:04:41;;;;;;;74.47;30.73;;;;;;;;;;4976770;28;20391;-62
2023/02/16 08:07:06;;;;;;;79.35;33.22;;;;;;;;;;4972480;28;20266;-61
2023/02/16 08:09:32;;;;;;;72.28;33.15;;;;;;;;;;4972038;28;20030;-60
2023/02/16 08:11:59;;;;;;;81.18;33.63;;;;;;;;;;4982417;28;20037;-60
2023/02/16 08:14:25;;;;;;;84.20;34.97;;;;;;;;;;4975645;28;20022;-61
2023/02/16 08:16:50;;;;;;;95.25;36.75;;;;;;;;;;4973686;28;20517;-61
2023/02/16 08:19:15;;;;;;;100.78;35.20;;;;;;;;;;4979964;28;20623;-61
2023/02/16 08:21:40;;;;;;;94.57;35.08;;;;;;;;;;4972903;28;20026;-60
2023/02/16 08:24:07;;;;;;;83.68;34.13;;;;;;;;;;4979834;28;20030;-61
2023/02/16 08:26:35;;;;;;;82.95;33.95;;;;;;;;;;4969823;28;20084;-61
2023/02/16 08:29:01;;;;;;;79.32;34.70;;;;;;;;;;4972091;28;20118;-61
2023/02/16 08:31:28;;;;;;;93.03;39.30;;;;;;;;;;4977362;28;20045;-60
2023/02/16 08:33:54;;;;;;;87.78;37.10;;;;;;;;;;4974237;28;20029;-61
2023/02/16 08:36:25;;;;;;;91.55;37.05;;;;;;;;;;4977060;28;20390;-61
2023/02/16 08:38:52;;;;;;;91.78;38.38;;;;;;;;;;4976278;28;20041;-62
2023/02/16 08:41:18;;;;;;;89.57;36.72;;;;;;;;;;4974052;28;20030;-61
2023/02/16 08:43:44;;;;;;;80.80;35.15;;;;;;;;;;4973973;28;20030;-60
2023/02/16 08:46:09;;;;;;;84.13;37.00;;;;;;;;;;4971407;28;20039;-60
2023/02/16 08:48:35;;;;;;;81.18;34.85;;;;;;;;;;4976513;28;20026;-62
2023/02/16 08:51:00;;;;;;;80.60;33.85;;;;;;;;;;4977646;28;20041;-61
2023/02/16 08:53:26;;;;;;;81.25;34.50;;;;;;;;;;4974942;28;20023;-61
2023/02/16 08:55:53;;;;;;;79.50;35.70;;;;;;;;;;4980959;28;20053;-60
2023/02/16 08:58:18;;;;;;;83.00;38.47;;;;;;;;;;4975654;28;20026;-61
2023/02/16 09:00:43;;;;;;;94.07;39.08;;;;;;;;;;4976433;28;20276;-59
2023/02/16 09:03:09;;;;;;;80.15;35.63;;;;;;;;;;4981099;28;20747;-59
2023/02/16 09:05:34;;;;;;;85.20;37.72;;;;;;;;;;4972551;28;20018;-61
2023/02/16 09:07:59;;;;;;;85.90;36.00;;;;;;;;;;4984257;28;20040;-61
2023/02/16 09:10:25;;;;;;;71.43;32.92;;;;;;;;;;4973678;28;20031;-60
2023/02/16 09:12:50;;;;;;;75.57;33.17;;;;;;;;;;4970034;28;20030;-60
2023/02/16 09:15:15;;;;;;;76.70;32.40;;;;;;;;;;4982269;28;20383;-61
2023/02/16 09:17:44;;;;;;;67.55;30.83;;;;;;;;;;4975760;28;20454;-61
2023/02/16 09:20:11;;;;;;;69.40;31.63;;;;;;;;;;4979357;28;20041;-60
2023/02/16 09:22:36;;;;;;;75.13;32.00;;;;;;;;;;4974238;28;20061;-60
2023/02/16 09:25:02;;;;;;;74.53;33.30;;;;;;;;;;4976618;28;20121;-61
2023/02/16 09:27:27;;;;;;;65.35;31.20;;;;;;;;;;4979703;28;20081;-61
2023/02/16 09:29:53;;;;;;;65.50;31.58;;;;;;;;;;4972042;28;20038;-59
2023/02/16 09:32:18;;;;;;;65.63;30.75;;;;;;;;;;4978916;28;20031;-61
2023/02/16 09:34:43;;;;;;;55.95;28.23;;;;;;;;;;4976672;28;20108;-60
2023/02/16 09:37:09;;;;;;;60.85;28.02;;;;;;;;;;4978869;28;20121;-59
2023/02/16 09:39:34;;;;;;;62.30;26.30;;;;;;;;;;4982704;28;20041;-61
2023/02/16 09:42:32;;;;;;;55.42;25.33;;;;;;;;;;4977101;28;20057;-61
2023/02/16 09:45:06;;;;;;;60.58;24.67;;;;;;;;;;4953030;28;20045;-60
2023/02/16 09:47:33;;;;;;;51.78;23.42;;;;;;;;;;4988074;28;20771;-59
2023/02/16 09:50:03;;;;;;;51.60;23.55;;;;;;;;;;4977748;28;20140;-60
2023/02/16 09:52:33;;;;;;;49.80;23.73;;;;;;;;;;4999177;28;20659;-60
2023/02/16 09:54:59;;;;;;;47.08;22.65;;;;;;;;;;4978367;28;20109;-61
2023/02/16 09:57:37;;;;;;;51.90;23.10;;;;;;;;;;4978102;28;20208;-59
2023/02/16 10:00:05;;;;;;;51.63;23.13;;;;;;;;;;4983645;28;20038;-61
2023/02/16 10:02:34;;;;;;;49.92;21.85;;;;;;;;;;4978475;28;20042;-61
2023/02/16 10:05:16;;;;;;;44.90;22.55;;;;;;;;;;4984990;28;20391;-60
2023/02/16 10:08:04;;;;;;;49.13;23.10;;;;;;;;;;4985950;28;20038;-59
2023/02/16 10:10:38;;;;;;;48.58;24.20;;;;;;;;;;4980154;28;20066;-60
2023/02/16 10:13:10;;;;;;;50.90;23.65;;;;;;;;;;4984403;28;20546;-60
2023/02/16 10:15:36;;;;;;;53.45;23.45;;;;;;;;;;4977257;28;20030;-60
2023/02/16 10:18:15;;;;;;;45.70;21.67;;;;;;;;;;4976713;28;20073;-59
2023/02/16 10:20:42;;;;;;;45.47;22.25;;;;;;;;;;4987742;28;20045;-59
2023/02/16 10:23:08;;;;;;;;;;;;;;;;;;4979837;28;20027;-59
2023/02/16 10:25:39;;;;;;;39.58;19.60;;;;;;;;;;4980841;28;19918;-60
2023/02/16 10:28:12;;;;;;;46.15;19.33;;;;;;;;;;4985124;28;20037;-60
2023/02/16 10:30:39;;;;;;;35.50;18.50;;;;;;;;;;4979628;28;20045;-60
2023/02/16 10:33:11;;;;;;;43.40;19.95;;;;;;;;;;4983422;28;20024;-60
2023/02/16 10:35:42;;;;;;;43.47;19.65;;;;;;;;;;4975615;28;20036;-59
2023/02/16 10:38:19;;;;;;;35.97;18.77;;;;;;;;;;4978009;28;20081;-61
2023/02/16 10:40:44;;;;;;;;;;;;;;;;;;4984023;28;20038;-60
2023/02/16 10:43:16;;;;;;;38.90;17.00;;;;;;;;;;4977365;28;19963;-60
2023/02/16 10:45:47;;;;;;;36.80;17.40;;;;;;;;;;4976304;28;20027;-61
2023/02/16 10:48:13;;;;;;;38.45;18.75;;;;;;;;;;4980530;28;20080;-60
2023/02/16 10:50:45;;;;;;;38.05;17.67;;;;;;;;;;4974823;28;20042;-61
2023/02/16 10:53:37;;;;;;;35.40;17.00;;;;;;;;;;4980849;28;20057;-60
2023/02/16 10:56:19;;;;;;;38.45;16.95;;;;;;;;;;4957983;28;20056;-60
2023/02/16 10:58:45;;;;;;;33.65;16.13;;;;;;;;;;4976484;28;20038;-59
2023/02/16 11:01:30;;;;;;;40.20;15.88;;;;;;;;;;4984239;28;20041;-59
2023/02/16 11:03:55;;;;;;;33.75;16.83;;;;;;;;;;4977093;28;20546;-61
2023/02/16 11:06:24;;;;;;;35.75;15.10;;;;;;;;;;4975535;28;20041;-59
2023/02/16 11:08:51;;;;;;;31.85;15.77;;;;;;;;;;4981772;28;20038;-60
2023/02/16 11:11:17;;;;;;;30.25;15.45;;;;;;;;;;4976893;28;20045;-59
2023/02/16 11:13:46;;;;;;;30.80;15.73;;;;;;;;;;4972473;28;20049;-61
2023/02/16 11:16:18;;;;;;;36.60;17.63;;;;;;;;;;4979220;28;20022;-58
2023/02/16 11:18:48;;;;;;;29.67;14.75;;;;;;;;;;4981119;28;20557;-58
2023/02/16 11:21:13;;;;;;;35.92;16.95;;;;;;;;;;4974958;28;20061;-60
2023/02/16 11:23:40;;;;;;;30.85;15.65;;;;;;;;;;4977062;28;20018;-60
2023/02/16 11:26:05;;;;;;;36.47;16.73;;;;;;;;;;4974390;28;20026;-59
2023/02/16 11:28:31;;;;;;;29.15;14.52;;;;;;;;;;4983010;28;20038;-61
2023/02/16 11:31:08;;;;;;;31.70;14.55;;;;;;;;;;4976756;28;20033;-61
2023/02/16 11:33:34;;;;;;;27.98;14.00;;;;;;;;;;4984675;28;20031;-61
2023/02/16 11:36:04;;;;;;;32.55;14.52;;;;;;;;;;4976404;28;20107;-60
2023/02/16 11:38:33;;;;;;;29.77;14.10;;;;;;;;;;4974237;28;20038;-58
2023/02/16 11:41:00;;;;;;;30.48;14.38;;;;;;;;;;4979749;28;20030;-60
2023/02/16 11:43:27;;;;;;;25.48;13.38;;;;;;;;;;4978114;28;20109;-60
2023/02/16 11:46:19;;;;;;;26.83;13.73;;;;;;;;;;4982767;28;20043;-60
2023/02/16 11:48:45;;;;;;;26.20;13.35;;;;;;;;;;4982982;28;20697;-61
2023/02/16 11:51:14;;;;;;;24.85;12.65;;;;;;;;;;4976074;28;20313;-61
2023/02/16 11:53:43;;;;;;;28.40;12.15;;;;;;;;;;4983366;28;20081;-60
2023/02/16 11:56:11;;;;;;;22.63;11.70;;;;;;;;;;4974934;28;20019;-60
2023/02/16 11:58:37;;;;;;;20.77;11.75;;;;;;;;;;4978195;28;20604;-62
2023/02/16 12:01:25;;;;;;;19.27;11.65;;;;;;;;;;4982605;28;20026;-60
2023/02/16 12:04:02;;;;;;;20.45;11.38;;;;;;;;;;4976785;28;20034;-62
2023/02/16 12:06:27;;;;;;;17.25;9.23;;;;;;;;;;4978920;28;20034;-61
2023/02/16 12:08:59;;;;;;;18.70;10.20;;;;;;;;;;4980962;28;20045;-60
2023/02/16 12:11:47;;;;;;;21.27;11.07;;;;;;;;;;4974462;28;20030;-61
2023/02/16 12:14:26;;;;;;;16.70;9.80;;;;;;;;;;4970527;28;20388;-60
2023/02/16 12:16:57;;;;;;;16.85;9.65;;;;;;;;;;4981505;28;20116;-61
2023/02/16 12:19:32;;;;;;;14.95;9.32;;;;;;;;;;4973136;28;20040;-61
2023/02/16 12:22:06;;;;;;;18.10;10.55;;;;;;;;;;4977714;28;20757;-62
2023/02/16 12:24:56;;;;;;;16.63;9.10;;;;;;;;;;4971756;28;20030;-59
2023/02/16 12:27:40;;;;;;;16.60;9.35;;;;;;;;;;4976095;28;20026;-61
2023/02/16 12:30:11;;;;;;;17.48;8.60;;;;;;;;;;4982292;28;20053;-61
2023/02/16 12:32:43;;;;;;;16.05;9.00;;;;;;;;;;4984194;28;20624;-61
2023/02/16 12:35:28;;;;;;;17.13;9.50;;;;;;;;;;4975697;28;20034;-60
2023/02/16 12:38:03;;;;;;;17.80;9.93;;;;;;;;;;4980605;28;20439;-61
2023/02/16 12:40:34;;;;;;;17.48;9.85;;;;;;;;;;4976929;28;20029;-60
2023/02/16 12:43:18;;;;;;;14.18;9.07;;;;;;;;;;4987356;28;20095;-60
2023/02/16 12:45:44;;;;;;;16.38;8.48;;;;;;;;;;4980880;28;20035;-61
2023/02/16 12:48:09;;;;;;;16.88;8.95;;;;;;;;;;4972634;28;20030;-61
2023/02/16 12:50:35;;;;;;;17.57;9.43;;;;;;;;;;4979437;28;20183;-59
2023/02/16 12:53:04;;;;;;;15.23;9.17;;;;;;;;;;4974928;28;20614;-61
2023/02/16 12:55:42;;;;;;;15.07;8.30;;;;;;;;;;4975975;28;20038;-60
2023/02/16 12:58:07;;;;;;;16.25;9.15;;;;;;;;;;4979689;28;20038;-60
2023/02/16 13:00:47;;;;;;;18.00;9.10;;;;;;;;;;4973433;28;20399;-60
2023/02/16 13:03:18;;;;;;;13.35;8.13;;;;;;;;;;4973416;28;20029;-59
2023/02/16 13:05:44;;;;;;;14.85;8.45;;;;;;;;;;4980695;28;20034;-60
2023/02/16 13:08:10;;;;;;;18.48;9.23;;;;;;;;;;4974342;28;20403;-59
2023/02/16 13:10:40;;;;;;;13.53;8.00;;;;;;;;;;4983920;28;20559;-61
2023/02/16 13:13:14;;;;;;;15.63;8.90;;;;;;;;;;4978144;28;20018;-61
2023/02/16 13:15:39;;;;;;;18.58;9.15;;;;;;;;;;4979120;28;20937;-61
2023/02/16 13:18:10;;;;;;;13.90;8.33;;;;;;;;;;4984186;28;20034;-60
2023/02/16 13:20:38;;;;;;;18.20;8.20;;;;;;;;;;4978730;28;20750;-61
2023/02/16 13:23:22;;;;;;;12.43;7.85;;;;;;;;;;4980319;28;20092;-60
2023/02/16 13:25:47;;;;;;;13.40;8.10;;;;;;;;;;4981096;28;20081;-59
2023/02/16 13:28:16;;;;;;;13.67;7.87;;;;;;;;;;4978053;28;20051;-59
2023/02/16 13:31:11;;;;;;;16.73;8.55;;;;;;;;;;4963650;28;20489;-61
2023/02/16 13:33:50;;;;;;;12.88;7.38;;;;;;;;;;4975213;28;20038;-61
2023/02/16 13:36:24;;;;;;;13.95;7.72;;;;;;;;;;4976173;28;20062;-60
2023/02/16 13:39:08;;;;;;;11.63;7.35;;;;;;;;;;4985834;28;20034;-60
2023/02/16 13:41:43;;;;;;;14.77;8.15;;;;;;;;;;4986810;28;20234;-61
2023/02/16 13:44:12;;;;;;;16.15;8.45;;;;;;;;;;4977447;28;20030;-60
2023/02/16 13:46:51;;;;;;;15.23;8.07;;;;;;;;;;4985668;28;20042;-60
2023/02/16 13:49:29;;;;;;;15.25;8.00;;;;;;;;;;4985361;28;20057;-60
2023/02/16 13:51:54;;;;;;;14.75;8.25;;;;;;;;;;4978043;28;20507;-60
2023/02/16 13:54:26;;;;;;;20.23;9.07;;;;;;;;;;4984370;28;20034;-60
2023/02/16 13:56:52;;;;;;;13.50;8.13;;;;;;;;;;4978832;28;20102;-59
2023/02/16 13:59:17;;;;;;;15.80;8.20;;;;;;;;;;4978462;28;20113;-60
2023/02/16 14:01:43;;;;;;;15.87;8.23;;;;;;;;;;4982038;28;20030;-60
2023/02/16 14:04:11;;;;;;;14.00;8.98;;;;;;;;;;4983157;28;20121;-60
2023/02/16 14:06:38;;;;;;;14.45;8.45;;;;;;;;;;4998935;28;20117;-60
2023/02/16 14:09:13;;;;;;;14.38;8.30;;;;;;;;;;4984740;28;20101;-59
2023/02/16 14:11:51;;;;;;;14.93;8.95;;;;;;;;;;4983412;28;20112;-60
2023/02/16 14:14:30;;;;;;;14.95;8.70;;;;;;;;;;4983953;28;20766;-60
2023/02/16 14:17:14;;;;;;;17.70;9.18;;;;;;;;;;4985205;28;20109;-60
2023/02/16 14:19:54;;;;;;;16.48;8.70;;;;;;;;;;4984025;28;20038;-60
2023/02/16 14:22:22;;;;;;;18.65;9.38;;;;;;;;;;4985446;28;20033;-60
2023/02/16 14:24:54;;;;;;;15.38;8.40;;;;;;;;;;4985595;28;20035;-59
2023/02/16 14:27:43;;;;;;;17.85;9.18;;;;;;;;;;4984812;28;20039;-59
2023/02/16 14:30:15;;;;;;;15.82;8.43;;;;;;;;;;4981188;28;20475;-59
2023/02/16 14:32:44;;;;;;;19.35;8.90;;;;;;;;;;4982062;28;20058;-60
2023/02/16 14:35:12;;;;;;;17.27;8.90;;;;;;;;;;4976320;28;20034;-59
2023/02/16 14:37:40;;;;;;;14.43;8.45;;;;;;;;;;4986532;28;20531;-59
2023/02/16 14:40:05;;;;;;;;;;;;;;;;;;4984404;28;20109;-60
2023/02/16 14:42:32;;;;;;;14.90;8.30;;;;;;;;;;4983107;28;20390;-60
2023/02/16 14:45:00;;;;;;;16.27;8.48;;;;;;;;;;4974155;28;20025;-61
2023/02/16 14:47:35;;;;;;;12.70;8.05;;;;;;;;;;4984131;28;20038;-60
2023/02/16 14:50:14;;;;;;;14.90;8.30;;;;;;;;;;4984321;28;20065;-61
2023/02/16 14:52:42;;;;;;;14.30;7.78;;;;;;;;;;4984180;28;20041;-60
2023/02/16 14:55:21;;;;;;;19.35;9.32;;;;;;;;;;4983643;28;20037;-59
2023/02/16 14:58:06;;;;;;;17.73;8.77;;;;;;;;;;4985873;28;20533;-60
2023/02/16 15:00:45;;;;;;;18.33;8.23;;;;;;;;;;4980909;28;20070;-60
2023/02/16 15:03:15;;;;;;;16.17;8.02;;;;;;;;;;4980208;28;20022;-62
2023/02/16 15:05:40;;;;;;;16.20;8.55;;;;;;;;;;4983723;28;20032;-61
2023/02/16 15:08:11;;;;;;;12.93;7.75;;;;;;;;;;4978422;28;20042;-59
2023/02/16 15:10:37;;;;;;;18.02;8.63;;;;;;;;;;4980054;28;20031;-59